< Typhoon 200317 2003 Season Typhoon 200319 >
Typhoon 200318 (PARMA)
General InformationTrack Information on Google MapsDetailed Wind InformationAccess Analytics MapList of All Images || NewsDisaster Info.WeblogResourceGoogle EarthGE AnimationAtom FeedGeoJSON
Detalied Best Track (Time Zone = UTC)
Year Month Day Hour Lat. Long. Pressure (hPa) Wind (kt) Class Image Chart
2003 10 19 00 18.4 145.2 1000 0 2 Image Chart
2003 10 19 06 18.4 144.8 1000 0 2 Image Chart
2003 10 19 12 18.3 144.4 1000 0 2 Image Chart
2003 10 19 18 18.4 144.0 1000 0 2 Image Chart
2003 10 20 00 18.8 143.8 1000 0 2 Image Chart
2003 10 20 06 19.7 143.2 998 0 2 Image Chart
2003 10 20 12 20.8 143.5 998 0 2 Image Chart
2003 10 20 18 20.9 143.9 996 0 2 Image Chart
2003 10 21 00 21.0 144.4 994 35 3 Image Chart
2003 10 21 06 21.5 144.9 992 40 3 Image Chart
2003 10 21 12 22.1 145.3 990 45 3 Image Chart
2003 10 21 18 22.1 146.1 985 50 4 Image Chart
2003 10 22 00 22.2 146.5 980 55 4 Image Chart
2003 10 22 06 23.0 146.9 970 65 5 Image Chart
2003 10 22 12 23.5 147.1 970 65 5 Image Chart
2003 10 22 18 24.1 147.9 965 65 5 Image Chart
2003 10 23 00 24.8 148.8 960 70 5 Image Chart
2003 10 23 06 26.1 149.6 950 80 5 Image Chart
2003 10 23 12 27.1 150.8 940 85 5 Image Chart
2003 10 23 18 28.4 152.3 935 90 5 Image Chart
2003 10 24 00 29.2 154.1 930 95 5 Image Chart
2003 10 24 06 30.2 156.3 930 95 5 Image Chart
2003 10 24 12 30.7 158.7 930 95 5 Image Chart
2003 10 24 18 30.7 161.4 930 95 5 Image Chart
2003 10 25 00 30.0 163.5 935 90 5 Image Chart
2003 10 25 06 29.0 165.4 935 90 5 Image Chart
2003 10 25 12 27.7 167.2 945 85 5 Image Chart
2003 10 25 18 26.4 168.5 955 75 5 Image Chart
2003 10 26 00 25.3 169.7 965 65 5 Image Chart
2003 10 26 06 24.0 169.5 970 60 4 Image Chart
2003 10 26 12 23.1 168.9 970 60 4 Image Chart
2003 10 26 18 22.9 167.6 970 60 4 Image Chart
2003 10 27 00 22.7 166.0 975 60 4 Image Chart
2003 10 27 06 22.5 164.5 975 60 4 Image Chart
2003 10 27 12 21.8 162.7 975 60 4 Image Chart
2003 10 27 18 22.0 160.6 975 60 4 Image Chart
2003 10 28 00 21.9 158.2 975 60 4 Image Chart
2003 10 28 06 21.8 155.9 975 60 4 Image Chart
2003 10 28 12 21.9 154.0 970 65 5 Image Chart
2003 10 28 18 22.7 152.2 960 70 5 Image Chart
2003 10 29 00 23.1 150.4 950 80 5 Image Chart
2003 10 29 06 23.9 149.4 935 90 5 Image Chart
2003 10 29 12 24.8 148.9 935 90 5 Image Chart
2003 10 29 18 25.7 149.3 935 90 5 Image Chart
2003 10 30 00 26.6 150.2 940 85 5 Image Chart
2003 10 30 06 27.8 151.8 945 80 5 Image Chart
2003 10 30 12 28.9 154.3 955 75 5 Image Chart
2003 10 30 18 29.7 156.6 965 70 5 Image Chart
2003 10 31 00 30.7 159.8 975 60 4 Image Chart
2003 10 31 06 31.3 163.5 980 55 4 Image Chart
2003 10 31 12 32.0 167.0 984 0 6 Image Chart
2003 10 31 18 33.0 170.2 988 0 6 Image Chart
2003 11 1 00 33.7 173.1 988 0 6 Image Chart
2003 11 1 06 34.4 175.9 990 0 6 Image Chart
2003 11 1 12 34.7 179.4 992 0 6 Image Chart
2003 11 1 18 35.6 182.6 992 0 6 Image Chart
Japan Meteorological Agency Best Track Data | Correction Date : 2004-02-17
< Typhoon 200317 2003 Season Typhoon 200319 >

Help